Mali Losinj, Croatia
Current Conditions -  °F | °C
As of 3:30 PM on Friday 24 Oct 2014 (Local Time) from LDPL Reporting Station
Few Clouds Few Clouds  
Wind Chill: 61°   Ceiling: Unl
Heat Index: 61°   Visibility: 6mi
Dew Point: 45°   Wind: 14mph
Humidity: 55%   Direction: 50°NE
Pressure: 29.94"   Gusts: NA
Location:  44.53°N, 14.47°E
Report Text: LDPL 241330Z 05012KT 010V100 9999 FEW055 16/07 Q1014 TEMPO 06015G25KT
Loading
Personal Weather Stations






























Interactive Weather Map
Tropical Storm Tracking
New forecast layout! Learn more

10-Day Weather Forecast

Advertisements
Track Severe Weather on mobile